Corvallis, OR (97333)

11:29 AM PST on December 22, 2014 (GMT -0800)
Near Starker Arts Park | Change Station
CLOSE
Current Station
Personal Weather Station
Location: Corvallis, OR
Elevation: 250 ft
Nearby Weather Stations
Active Advisory: Flood Warning

Elev 250 ft 44.55 °N, 123.30 °W | Updated 3 minutes ago

Scattered Clouds
Scattered Clouds
51.4 °F
Feels Like 51.4 °F
N
0.0
Wind Variable Wind from North
Gusts 2.0 mph

Today
High -- | Low -- °F
--% Chance of Precip.
Yesterday
High -- | Low -- °F
Precip. -- in
7:47 AM 4:36 PM
New Moon, 1% visible
Pressure 30.39 in
Visibility 3.0 miles
Clouds Scattered Clouds 1100 ft
Dew Point 50 °F
Humidity 96%
Rainfall 0.05 in
Snow Depth Not available.
UV 1 out of 12
Pollen .50 out of 12
Air Quality Not available.
Flu Activity Not available.
METAR KCVO 221915Z AUTO 00000KT 3SM SCT011 12/09 A3039 RMK AO1

More Conditions Fewer Conditions

Pressure 30.39 in
Visibility 3.0 miles
Clouds Scattered Clouds 1100 ft
Dew Point 50 °F
Humidity 96%
Rainfall 0.05 in
Snow Depth Not available.
UV 1 out of 12
Pollen .50 out of 12
Air Quality Not available.
Flu Activity Not available.
METAR KCVO 221915Z AUTO 00000KT 3SM SCT011 12/09 A3039 RMK AO1

More Conditions Fewer Conditions

10-Day Weather Forecast

Almanac

Astronomy

Dec. 22, 2014 Rise Set
Actual Time
Civil Twilight
Nautical Twilight
Astronomical Twilight
Moon
Length of Visible Light
Length of Day
Tomorrow will be .
, % of the Moon is Illuminated

Today's Extremes

State Highs State Lows

Community

WunderPhotos

Upload Photos

1,779,693 photos uploaded!

WunderBlogs® & News

Nearby

Air Quality

  Air Quality AQ Index Pollutant
Not available.

Snow Depth

Station Depth Elevation

Earthquake Activity

City Distance Mag. Time & Date
Minimum magnitude displayed is 2.5.

Coastal Water Temperatures

Place Temperature

Nearby Weather Stations